sensor_id;sensor_type;location;lat;lon;timestamp;temperature;humidity
32394;DHT22;18853;45.426;9.206;2023-07-30T00:02:03;29.20;56.90
32394;DHT22;18853;45.426;9.206;2023-07-30T00:04:29;29.20;56.80
32394;DHT22;18853;45.426;9.206;2023-07-30T00:06:54;29.20;56.90
32394;DHT22;18853;45.426;9.206;2023-07-30T00:09:20;29.10;56.80
32394;DHT22;18853;45.426;9.206;2023-07-30T00:11:46;29.10;56.80
32394;DHT22;18853;45.426;9.206;2023-07-30T00:14:12;29.10;57.10
32394;DHT22;18853;45.426;9.206;2023-07-30T00:16:37;29.10;56.90
32394;DHT22;18853;45.426;9.206;2023-07-30T00:19:03;29.10;57.10
32394;DHT22;18853;45.426;9.206;2023-07-30T00:21:29;29.00;57.30
32394;DHT22;18853;45.426;9.206;2023-07-30T00:23:54;29.00;57.30
32394;DHT22;18853;45.426;9.206;2023-07-30T00:26:20;29.00;57.40
32394;DHT22;18853;45.426;9.206;2023-07-30T00:28:46;29.00;57.60
32394;DHT22;18853;45.426;9.206;2023-07-30T00:31:11;29.00;57.60
32394;DHT22;18853;45.426;9.206;2023-07-30T00:33:37;29.00;57.50
32394;DHT22;18853;45.426;9.206;2023-07-30T00:36:03;28.90;57.60
32394;DHT22;18853;45.426;9.206;2023-07-30T00:38:28;28.90;57.90
32394;DHT22;18853;45.426;9.206;2023-07-30T00:40:54;28.90;57.80
32394;DHT22;18853;45.426;9.206;2023-07-30T00:43:21;28.80;57.50
32394;DHT22;18853;45.426;9.206;2023-07-30T00:45:46;28.90;57.40
32394;DHT22;18853;45.426;9.206;2023-07-30T00:48:13;28.80;57.50
32394;DHT22;18853;45.426;9.206;2023-07-30T00:50:40;28.80;57.50
32394;DHT22;18853;45.426;9.206;2023-07-30T00:53:07;28.80;57.50
32394;DHT22;18853;45.426;9.206;2023-07-30T00:55:34;28.80;57.60
32394;DHT22;18853;45.426;9.206;2023-07-30T00:58:01;28.80;57.60
32394;DHT22;18853;45.426;9.206;2023-07-30T01:00:27;28.80;57.80
32394;DHT22;18853;45.426;9.206;2023-07-30T01:02:56;28.70;57.70
32394;DHT22;18853;45.426;9.206;2023-07-30T01:05:21;28.70;57.90
32394;DHT22;18853;45.426;9.206;2023-07-30T01:07:47;28.70;57.90
32394;DHT22;18853;45.426;9.206;2023-07-30T01:10:13;28.70;58.00
32394;DHT22;18853;45.426;9.206;2023-07-30T01:12:40;28.70;58.10
32394;DHT22;18853;45.426;9.206;2023-07-30T01:15:07;28.70;58.20
32394;DHT22;18853;45.426;9.206;2023-07-30T01:17:34;28.50;58.00
32394;DHT22;18853;45.426;9.206;2023-07-30T01:20:00;28.40;58.00
32394;DHT22;18853;45.426;9.206;2023-07-30T01:22:26;28.40;58.30
32394;DHT22;18853;45.426;9.206;2023-07-30T01:24:52;28.30;58.40
32394;DHT22;18853;45.426;9.206;2023-07-30T01:27:29;28.40;58.50
32394;DHT22;18853;45.426;9.206;2023-07-30T01:32:34;28.40;58.50
32394;DHT22;18853;45.426;9.206;2023-07-30T01:35:02;28.40;58.30
32394;DHT22;18853;45.426;9.206;2023-07-30T01:37:29;28.50;58.40
32394;DHT22;18853;45.426;9.206;2023-07-30T01:39:57;28.50;58.40
32394;DHT22;18853;45.426;9.206;2023-07-30T01:42:28;28.50;58.60
32394;DHT22;18853;45.426;9.206;2023-07-30T01:44:54;28.50;58.50
32394;DHT22;18853;45.426;9.206;2023-07-30T01:47:20;28.50;58.50
32394;DHT22;18853;45.426;9.206;2023-07-30T01:49:46;28.40;58.40
32394;DHT22;18853;45.426;9.206;2023-07-30T01:52:11;28.40;58.50
32394;DHT22;18853;45.426;9.206;2023-07-30T01:54:37;28.40;58.90
32394;DHT22;18853;45.426;9.206;2023-07-30T01:57:04;28.30;58.90
32394;DHT22;18853;45.426;9.206;2023-07-30T01:59:30;28.40;59.10
32394;DHT22;18853;45.426;9.206;2023-07-30T02:01:55;28.30;59.10
32394;DHT22;18853;45.426;9.206;2023-07-30T02:04:21;28.30;59.20
32394;DHT22;18853;45.426;9.206;2023-07-30T02:06:46;28.30;59.40
32394;DHT22;18853;45.426;9.206;2023-07-30T02:09:13;28.30;59.60
32394;DHT22;18853;45.426;9.206;2023-07-30T02:11:39;28.20;59.50
32394;DHT22;18853;45.426;9.206;2023-07-30T02:14:05;28.20;59.40
32394;DHT22;18853;45.426;9.206;2023-07-30T02:16:30;28.20;59.60
32394;DHT22;18853;45.426;9.206;2023-07-30T02:18:56;28.20;59.60
32394;DHT22;18853;45.426;9.206;2023-07-30T02:21:22;28.20;59.60
32394;DHT22;18853;45.426;9.206;2023-07-30T02:23:47;28.20;59.70
32394;DHT22;18853;45.426;9.206;2023-07-30T02:26:13;28.20;59.70
32394;DHT22;18853;45.426;9.206;2023-07-30T02:28:39;28.20;59.70
32394;DHT22;18853;45.426;9.206;2023-07-30T02:31:04;28.20;59.70
32394;DHT22;18853;45.426;9.206;2023-07-30T02:33:30;28.10;59.50
32394;DHT22;18853;45.426;9.206;2023-07-30T02:35:55;28.10;59.50
32394;DHT22;18853;45.426;9.206;2023-07-30T02:38:21;28.10;59.70
32394;DHT22;18853;45.426;9.206;2023-07-30T02:40:47;28.10;59.60
32394;DHT22;18853;45.426;9.206;2023-07-30T02:43:13;28.10;59.70
32394;DHT22;18853;45.426;9.206;2023-07-30T02:45:38;28.10;59.70
32394;DHT22;18853;45.426;9.206;2023-07-30T02:48:04;28.10;59.70
32394;DHT22;18853;45.426;9.206;2023-07-30T02:50:30;28.00;59.50
32394;DHT22;18853;45.426;9.206;2023-07-30T02:52:55;28.00;59.60
32394;DHT22;18853;45.426;9.206;2023-07-30T02:55:21;28.00;59.70
32394;DHT22;18853;45.426;9.206;2023-07-30T02:57:47;28.00;59.80
32394;DHT22;18853;45.426;9.206;2023-07-30T03:00:13;28.00;59.90
32394;DHT22;18853;45.426;9.206;2023-07-30T03:02:40;28.00;59.90
32394;DHT22;18853;45.426;9.206;2023-07-30T03:05:06;28.00;59.90
32394;DHT22;18853;45.426;9.206;2023-07-30T03:07:32;28.00;59.70
32394;DHT22;18853;45.426;9.206;2023-07-30T03:09:58;27.90;59.70
32394;DHT22;18853;45.426;9.206;2023-07-30T03:12:23;27.90;59.80
32394;DHT22;18853;45.426;9.206;2023-07-30T03:14:49;27.90;59.80
32394;DHT22;18853;45.426;9.206;2023-07-30T03:17:15;27.90;60.00
32394;DHT22;18853;45.426;9.206;2023-07-30T03:19:40;27.90;59.90
32394;DHT22;18853;45.426;9.206;2023-07-30T03:22:06;27.90;59.40
32394;DHT22;18853;45.426;9.206;2023-07-30T03:24:32;27.80;59.50
32394;DHT22;18853;45.426;9.206;2023-07-30T03:26:57;27.80;59.60
32394;DHT22;18853;45.426;9.206;2023-07-30T03:29:23;27.80;59.60
32394;DHT22;18853;45.426;9.206;2023-07-30T03:31:48;27.80;59.60
32394;DHT22;18853;45.426;9.206;2023-07-30T03:34:14;27.80;59.30
32394;DHT22;18853;45.426;9.206;2023-07-30T03:36:40;27.70;59.30
32394;DHT22;18853;45.426;9.206;2023-07-30T03:39:06;27.70;59.30
32394;DHT22;18853;45.426;9.206;2023-07-30T03:41:31;27.70;59.30
32394;DHT22;18853;45.426;9.206;2023-07-30T03:43:57;27.70;59.90
32394;DHT22;18853;45.426;9.206;2023-07-30T03:46:22;27.70;59.30
32394;DHT22;18853;45.426;9.206;2023-07-30T03:48:48;27.70;59.30
32394;DHT22;18853;45.426;9.206;2023-07-30T03:51:14;27.60;59.20
32394;DHT22;18853;45.426;9.206;2023-07-30T03:53:39;27.60;59.20
32394;DHT22;18853;45.426;9.206;2023-07-30T03:56:05;27.60;59.20
32394;DHT22;18853;45.426;9.206;2023-07-30T03:58:31;27.50;59.20
32394;DHT22;18853;45.426;9.206;2023-07-30T04:00:56;27.60;59.30
32394;DHT22;18853;45.426;9.206;2023-07-30T04:03:22;27.50;59.20
32394;DHT22;18853;45.426;9.206;2023-07-30T04:05:48;27.50;59.30
32394;DHT22;18853;45.426;9.206;2023-07-30T04:08:13;27.40;59.30
32394;DHT22;18853;45.426;9.206;2023-07-30T04:10:39;27.40;59.30
32394;DHT22;18853;45.426;9.206;2023-07-30T04:13:05;27.40;59.50
32394;DHT22;18853;45.426;9.206;2023-07-30T04:15:33;27.40;59.70
32394;DHT22;18853;45.426;9.206;2023-07-30T04:17:59;27.40;59.80
32394;DHT22;18853;45.426;9.206;2023-07-30T04:20:24;27.30;59.70
32394;DHT22;18853;45.426;9.206;2023-07-30T04:22:51;27.30;59.70
32394;DHT22;18853;45.426;9.206;2023-07-30T04:25:17;27.30;59.70
32394;DHT22;18853;45.426;9.206;2023-07-30T04:27:43;27.40;59.80
32394;DHT22;18853;45.426;9.206;2023-07-30T04:30:09;27.40;59.80
32394;DHT22;18853;45.426;9.206;2023-07-30T04:32:35;27.40;59.90
32394;DHT22;18853;45.426;9.206;2023-07-30T04:35:01;27.30;59.80
32394;DHT22;18853;45.426;9.206;2023-07-30T04:37:28;27.40;60.10
32394;DHT22;18853;45.426;9.206;2023-07-30T04:39:54;27.30;60.20
32394;DHT22;18853;45.426;9.206;2023-07-30T04:42:20;27.40;60.30
32394;DHT22;18853;45.426;9.206;2023-07-30T04:44:45;27.40;60.50
32394;DHT22;18853;45.426;9.206;2023-07-30T04:47:11;27.40;60.60
32394;DHT22;18853;45.426;9.206;2023-07-30T04:49:37;27.40;60.60
32394;DHT22;18853;45.426;9.206;2023-07-30T04:52:09;27.30;60.40
32394;DHT22;18853;45.426;9.206;2023-07-30T04:54:34;27.40;60.50
32394;DHT22;18853;45.426;9.206;2023-07-30T04:57:03;27.40;61.00
32394;DHT22;18853;45.426;9.206;2023-07-30T04:59:29;27.30;60.90
32394;DHT22;18853;45.426;9.206;2023-07-30T05:01:55;27.40;60.60
32394;DHT22;18853;45.426;9.206;2023-07-30T05:04:20;27.30;60.90
32394;DHT22;18853;45.426;9.206;2023-07-30T05:06:47;27.30;61.10
32394;DHT22;18853;45.426;9.206;2023-07-30T05:09:13;27.30;61.10
32394;DHT22;18853;45.426;9.206;2023-07-30T05:11:39;27.30;60.90
32394;DHT22;18853;45.426;9.206;2023-07-30T05:14:04;27.30;60.80
32394;DHT22;18853;45.426;9.206;2023-07-30T05:16:30;27.30;61.00
32394;DHT22;18853;45.426;9.206;2023-07-30T05:18:56;27.30;61.00
32394;DHT22;18853;45.426;9.206;2023-07-30T05:21:21;27.30;60.90
32394;DHT22;18853;45.426;9.206;2023-07-30T05:23:47;27.30;61.10
32394;DHT22;18853;45.426;9.206;2023-07-30T05:26:13;27.30;61.10
32394;DHT22;18853;45.426;9.206;2023-07-30T05:28:38;27.40;61.30
32394;DHT22;18853;45.426;9.206;2023-07-30T05:31:04;27.30;61.30
32394;DHT22;18853;45.426;9.206;2023-07-30T05:33:30;27.40;61.50
32394;DHT22;18853;45.426;9.206;2023-07-30T05:35:56;27.40;61.50
32394;DHT22;18853;45.426;9.206;2023-07-30T05:38:21;27.40;61.60
32394;DHT22;18853;45.426;9.206;2023-07-30T05:40:47;27.40;61.60
32394;DHT22;18853;45.426;9.206;2023-07-30T05:43:13;27.40;61.70
32394;DHT22;18853;45.426;9.206;2023-07-30T05:45:38;27.40;61.90
32394;DHT22;18853;45.426;9.206;2023-07-30T05:48:04;27.40;61.70
32394;DHT22;18853;45.426;9.206;2023-07-30T05:50:30;27.50;62.30
32394;DHT22;18853;45.426;9.206;2023-07-30T05:52:55;27.50;61.80
32394;DHT22;18853;45.426;9.206;2023-07-30T05:55:21;27.50;61.80
32394;DHT22;18853;45.426;9.206;2023-07-30T05:57:47;27.50;61.60
32394;DHT22;18853;45.426;9.206;2023-07-30T06:00:12;27.50;61.50
32394;DHT22;18853;45.426;9.206;2023-07-30T06:02:38;27.50;61.30
32394;DHT22;18853;45.426;9.206;2023-07-30T06:05:04;27.50;61.60
32394;DHT22;18853;45.426;9.206;2023-07-30T06:07:30;27.50;61.90
32394;DHT22;18853;45.426;9.206;2023-07-30T06:09:55;27.60;61.80
32394;DHT22;18853;45.426;9.206;2023-07-30T06:12:21;27.50;61.50
32394;DHT22;18853;45.426;9.206;2023-07-30T06:14:47;27.60;61.30
32394;DHT22;18853;45.426;9.206;2023-07-30T06:17:12;27.50;60.70
32394;DHT22;18853;45.426;9.206;2023-07-30T06:19:38;27.60;60.50
32394;DHT22;18853;45.426;9.206;2023-07-30T06:22:04;27.60;60.80
32394;DHT22;18853;45.426;9.206;2023-07-30T06:24:29;27.60;61.20
32394;DHT22;18853;45.426;9.206;2023-07-30T06:26:55;27.60;60.80
32394;DHT22;18853;45.426;9.206;2023-07-30T06:29:21;27.60;61.00
32394;DHT22;18853;45.426;9.206;2023-07-30T06:31:46;27.60;61.10
32394;DHT22;18853;45.426;9.206;2023-07-30T06:34:12;27.60;61.10
32394;DHT22;18853;45.426;9.206;2023-07-30T06:36:38;27.60;60.80
32394;DHT22;18853;45.426;9.206;2023-07-30T06:39:03;27.60;60.40
32394;DHT22;18853;45.426;9.206;2023-07-30T06:41:29;27.60;60.20
32394;DHT22;18853;45.426;9.206;2023-07-30T06:43:55;27.60;60.20
32394;DHT22;18853;45.426;9.206;2023-07-30T06:46:20;27.60;60.50
32394;DHT22;18853;45.426;9.206;2023-07-30T06:48:46;27.60;60.40
32394;DHT22;18853;45.426;9.206;2023-07-30T06:51:12;27.60;60.40
32394;DHT22;18853;45.426;9.206;2023-07-30T06:53:39;27.60;60.80
32394;DHT22;18853;45.426;9.206;2023-07-30T06:56:04;27.60;60.50
32394;DHT22;18853;45.426;9.206;2023-07-30T06:58:30;27.60;60.30
32394;DHT22;18853;45.426;9.206;2023-07-30T07:00:56;27.70;60.20
32394;DHT22;18853;45.426;9.206;2023-07-30T07:03:21;27.70;60.20
32394;DHT22;18853;45.426;9.206;2023-07-30T07:05:57;27.70;60.50
32394;DHT22;18853;45.426;9.206;2023-07-30T07:08:23;27.70;60.20
32394;DHT22;18853;45.426;9.206;2023-07-30T07:10:49;27.70;60.30
32394;DHT22;18853;45.426;9.206;2023-07-30T07:13:15;27.70;60.30
32394;DHT22;18853;45.426;9.206;2023-07-30T07:15:42;27.80;60.40
32394;DHT22;18853;45.426;9.206;2023-07-30T07:18:07;27.80;60.50
32394;DHT22;18853;45.426;9.206;2023-07-30T07:20:33;27.80;60.00
32394;DHT22;18853;45.426;9.206;2023-07-30T07:22:59;27.80;59.70
32394;DHT22;18853;45.426;9.206;2023-07-30T07:25:24;27.80;59.60
32394;DHT22;18853;45.426;9.206;2023-07-30T07:27:50;27.80;59.40
32394;DHT22;18853;45.426;9.206;2023-07-30T07:30:16;27.80;59.50
32394;DHT22;18853;45.426;9.206;2023-07-30T07:32:42;27.80;59.40
32394;DHT22;18853;45.426;9.206;2023-07-30T07:35:08;27.80;59.00
32394;DHT22;18853;45.426;9.206;2023-07-30T07:37:33;27.90;58.80
32394;DHT22;18853;45.426;9.206;2023-07-30T07:39:59;27.90;58.80
32394;DHT22;18853;45.426;9.206;2023-07-30T07:42:25;27.90;59.30
32394;DHT22;18853;45.426;9.206;2023-07-30T07:44:50;27.90;59.00
32394;DHT22;18853;45.426;9.206;2023-07-30T07:47:16;28.00;59.30
32394;DHT22;18853;45.426;9.206;2023-07-30T07:49:42;27.90;59.00
32394;DHT22;18853;45.426;9.206;2023-07-30T07:52:08;27.90;59.10
32394;DHT22;18853;45.426;9.206;2023-07-30T07:54:34;28.00;58.80
32394;DHT22;18853;45.426;9.206;2023-07-30T07:57:00;28.00;58.60
32394;DHT22;18853;45.426;9.206;2023-07-30T07:59:25;28.10;58.30
32394;DHT22;18853;45.426;9.206;2023-07-30T08:01:53;28.10;58.20
32394;DHT22;18853;45.426;9.206;2023-07-30T08:04:18;28.10;58.10
32394;DHT22;18853;45.426;9.206;2023-07-30T08:06:48;28.10;58.00
32394;DHT22;18853;45.426;9.206;2023-07-30T08:09:14;28.10;58.10
32394;DHT22;18853;45.426;9.206;2023-07-30T08:11:39;28.10;58.00
32394;DHT22;18853;45.426;9.206;2023-07-30T08:14:05;28.10;57.80
32394;DHT22;18853;45.426;9.206;2023-07-30T08:16:31;28.10;57.80
32394;DHT22;18853;45.426;9.206;2023-07-30T08:18:57;28.10;57.90
32394;DHT22;18853;45.426;9.206;2023-07-30T08:21:22;28.20;57.80
32394;DHT22;18853;45.426;9.206;2023-07-30T08:23:48;28.20;57.60
32394;DHT22;18853;45.426;9.206;2023-07-30T08:26:14;28.30;57.50
32394;DHT22;18853;45.426;9.206;2023-07-30T08:28:39;28.30;57.70
32394;DHT22;18853;45.426;9.206;2023-07-30T08:31:05;28.30;57.90
32394;DHT22;18853;45.426;9.206;2023-07-30T08:33:31;28.40;58.00
32394;DHT22;18853;45.426;9.206;2023-07-30T08:35:58;28.30;57.90
32394;DHT22;18853;45.426;9.206;2023-07-30T08:38:24;28.40;58.00
32394;DHT22;18853;45.426;9.206;2023-07-30T08:40:50;28.30;57.90
32394;DHT22;18853;45.426;9.206;2023-07-30T08:43:16;28.40;57.40
32394;DHT22;18853;45.426;9.206;2023-07-30T08:45:42;28.40;57.00
32394;DHT22;18853;45.426;9.206;2023-07-30T08:48:08;28.40;56.80
32394;DHT22;18853;45.426;9.206;2023-07-30T08:50:35;28.40;56.70
32394;DHT22;18853;45.426;9.206;2023-07-30T08:53:02;28.50;56.60
32394;DHT22;18853;45.426;9.206;2023-07-30T08:55:29;28.60;56.60
32394;DHT22;18853;45.426;9.206;2023-07-30T08:57:57;28.70;56.80
32394;DHT22;18853;45.426;9.206;2023-07-30T09:00:25;28.70;56.40
32394;DHT22;18853;45.426;9.206;2023-07-30T09:02:53;28.70;56.20
32394;DHT22;18853;45.426;9.206;2023-07-30T09:05:20;28.80;56.40
32394;DHT22;18853;45.426;9.206;2023-07-30T09:07:46;28.70;56.30
32394;DHT22;18853;45.426;9.206;2023-07-30T09:10:13;28.80;56.30
32394;DHT22;18853;45.426;9.206;2023-07-30T09:12:39;28.80;56.00
32394;DHT22;18853;45.426;9.206;2023-07-30T09:15:06;28.80;55.90
32394;DHT22;18853;45.426;9.206;2023-07-30T09:17:33;28.80;55.70
32394;DHT22;18853;45.426;9.206;2023-07-30T09:20:02;28.80;55.80
32394;DHT22;18853;45.426;9.206;2023-07-30T09:22:30;28.90;55.90
32394;DHT22;18853;45.426;9.206;2023-07-30T09:25:01;28.90;55.60
32394;DHT22;18853;45.426;9.206;2023-07-30T09:27:28;28.90;55.50
32394;DHT22;18853;45.426;9.206;2023-07-30T09:29:56;28.90;55.40
32394;DHT22;18853;45.426;9.206;2023-07-30T09:32:29;29.00;55.40
32394;DHT22;18853;45.426;9.206;2023-07-30T09:35:05;29.00;55.50
32394;DHT22;18853;45.426;9.206;2023-07-30T09:37:41;29.00;55.60
32394;DHT22;18853;45.426;9.206;2023-07-30T09:40:09;29.10;55.60
32394;DHT22;18853;45.426;9.206;2023-07-30T09:42:36;29.10;55.30
32394;DHT22;18853;45.426;9.206;2023-07-30T09:45:08;29.10;54.70
32394;DHT22;18853;45.426;9.206;2023-07-30T09:47:46;29.20;54.80
32394;DHT22;18853;45.426;9.206;2023-07-30T09:50:13;29.10;54.80
32394;DHT22;18853;45.426;9.206;2023-07-30T09:52:39;29.10;54.70
32394;DHT22;18853;45.426;9.206;2023-07-30T09:55:07;29.10;54.80
32394;DHT22;18853;45.426;9.206;2023-07-30T09:57:33;29.10;54.90
32394;DHT22;18853;45.426;9.206;2023-07-30T09:59:59;29.10;55.20
32394;DHT22;18853;45.426;9.206;2023-07-30T10:02:26;29.10;55.30
32394;DHT22;18853;45.426;9.206;2023-07-30T10:04:56;29.20;55.40
32394;DHT22;18853;45.426;9.206;2023-07-30T10:07:23;29.30;55.60
32394;DHT22;18853;45.426;9.206;2023-07-30T10:09:52;29.30;55.50
32394;DHT22;18853;45.426;9.206;2023-07-30T10:12:29;29.40;55.50
32394;DHT22;18853;45.426;9.206;2023-07-30T10:14:56;29.50;55.70
32394;DHT22;18853;45.426;9.206;2023-07-30T10:17:22;29.50;55.60
32394;DHT22;18853;45.426;9.206;2023-07-30T10:19:49;29.50;55.50
32394;DHT22;18853;45.426;9.206;2023-07-30T10:25:02;29.40;55.40
32394;DHT22;18853;45.426;9.206;2023-07-30T10:27:37;29.50;55.50
32394;DHT22;18853;45.426;9.206;2023-07-30T10:30:14;29.40;55.30
32394;DHT22;18853;45.426;9.206;2023-07-30T10:35:43;29.40;54.90
32394;DHT22;18853;45.426;9.206;2023-07-30T10:38:21;29.50;55.10
32394;DHT22;18853;45.426;9.206;2023-07-30T10:41:09;29.50;55.30
32394;DHT22;18853;45.426;9.206;2023-07-30T10:43:40;29.60;55.10
32394;DHT22;18853;45.426;9.206;2023-07-30T10:46:08;29.60;55.10
32394;DHT22;18853;45.426;9.206;2023-07-30T10:48:38;29.60;54.60
32394;DHT22;18853;45.426;9.206;2023-07-30T10:51:17;29.70;54.70
32394;DHT22;18853;45.426;9.206;2023-07-30T10:53:44;29.60;54.60
32394;DHT22;18853;45.426;9.206;2023-07-30T10:56:11;29.70;54.80
32394;DHT22;18853;45.426;9.206;2023-07-30T10:58:37;29.80;54.70
32394;DHT22;18853;45.426;9.206;2023-07-30T11:01:07;29.80;54.80
32394;DHT22;18853;45.426;9.206;2023-07-30T11:03:34;29.80;54.80
32394;DHT22;18853;45.426;9.206;2023-07-30T11:06:03;29.80;54.70
32394;DHT22;18853;45.426;9.206;2023-07-30T11:10:58;29.70;54.40
32394;DHT22;18853;45.426;9.206;2023-07-30T11:13:24;29.80;54.30
32394;DHT22;18853;45.426;9.206;2023-07-30T11:15:50;29.90;54.10
32394;DHT22;18853;45.426;9.206;2023-07-30T11:18:16;29.90;53.80
32394;DHT22;18853;45.426;9.206;2023-07-30T11:20:42;30.00;53.80
32394;DHT22;18853;45.426;9.206;2023-07-30T11:23:21;30.10;53.70
32394;DHT22;18853;45.426;9.206;2023-07-30T11:25:49;30.20;53.40
32394;DHT22;18853;45.426;9.206;2023-07-30T11:28:30;30.20;53.40
32394;DHT22;18853;45.426;9.206;2023-07-30T11:31:07;30.20;52.90
32394;DHT22;18853;45.426;9.206;2023-07-30T11:33:41;30.20;53.30
32394;DHT22;18853;45.426;9.206;2023-07-30T11:36:10;30.20;53.30
32394;DHT22;18853;45.426;9.206;2023-07-30T11:38:38;30.20;52.70
32394;DHT22;18853;45.426;9.206;2023-07-30T11:41:03;30.20;52.40
32394;DHT22;18853;45.426;9.206;2023-07-30T11:43:31;30.20;51.90
32394;DHT22;18853;45.426;9.206;2023-07-30T11:46:14;30.40;52.40
32394;DHT22;18853;45.426;9.206;2023-07-30T11:48:41;30.40;51.60
32394;DHT22;18853;45.426;9.206;2023-07-30T11:51:18;30.40;51.80
32394;DHT22;18853;45.426;9.206;2023-07-30T11:53:49;30.60;51.90
32394;DHT22;18853;45.426;9.206;2023-07-30T11:56:20;30.70;52.10
32394;DHT22;18853;45.426;9.206;2023-07-30T11:58:48;30.70;51.70
32394;DHT22;18853;45.426;9.206;2023-07-30T12:01:17;30.70;51.80
32394;DHT22;18853;45.426;9.206;2023-07-30T12:03:43;30.80;51.00
32394;DHT22;18853;45.426;9.206;2023-07-30T12:06:10;30.90;50.70
32394;DHT22;18853;45.426;9.206;2023-07-30T12:08:36;30.90;50.20
32394;DHT22;18853;45.426;9.206;2023-07-30T12:11:09;31.00;50.30
32394;DHT22;18853;45.426;9.206;2023-07-30T12:13:43;31.10;50.10
32394;DHT22;18853;45.426;9.206;2023-07-30T12:16:11;31.10;49.60
32394;DHT22;18853;45.426;9.206;2023-07-30T12:18:38;31.20;49.80
32394;DHT22;18853;45.426;9.206;2023-07-30T12:21:06;31.20;49.50
32394;DHT22;18853;45.426;9.206;2023-07-30T12:23:37;31.30;49.60
32394;DHT22;18853;45.426;9.206;2023-07-30T12:26:03;31.30;49.90
32394;DHT22;18853;45.426;9.206;2023-07-30T12:28:33;31.40;50.80
32394;DHT22;18853;45.426;9.206;2023-07-30T12:31:01;31.40;50.40
32394;DHT22;18853;45.426;9.206;2023-07-30T12:33:27;31.50;50.90
32394;DHT22;18853;45.426;9.206;2023-07-30T12:35:53;31.50;49.80
32394;DHT22;18853;45.426;9.206;2023-07-30T12:38:19;31.60;49.80
32394;DHT22;18853;45.426;9.206;2023-07-30T12:40:44;31.60;49.80
32394;DHT22;18853;45.426;9.206;2023-07-30T12:43:10;31.60;49.30
32394;DHT22;18853;45.426;9.206;2023-07-30T12:45:36;31.70;49.00
32394;DHT22;18853;45.426;9.206;2023-07-30T12:48:01;31.80;48.50
32394;DHT22;18853;45.426;9.206;2023-07-30T12:50:28;31.80;48.80
32394;DHT22;18853;45.426;9.206;2023-07-30T12:52:53;31.90;48.30
32394;DHT22;18853;45.426;9.206;2023-07-30T12:55:19;32.00;48.20
32394;DHT22;18853;45.426;9.206;2023-07-30T12:57:45;32.00;47.90
32394;DHT22;18853;45.426;9.206;2023-07-30T13:00:11;32.10;47.80
32394;DHT22;18853;45.426;9.206;2023-07-30T13:02:37;32.20;48.00
32394;DHT22;18853;45.426;9.206;2023-07-30T13:05:03;32.20;48.20
32394;DHT22;18853;45.426;9.206;2023-07-30T13:07:31;32.30;48.00
32394;DHT22;18853;45.426;9.206;2023-07-30T13:10:07;32.30;48.40
32394;DHT22;18853;45.426;9.206;2023-07-30T13:12:33;32.30;47.60
32394;DHT22;18853;45.426;9.206;2023-07-30T13:15:00;32.40;48.10
32394;DHT22;18853;45.426;9.206;2023-07-30T13:17:25;32.50;48.20
32394;DHT22;18853;45.426;9.206;2023-07-30T13:19:51;32.60;48.50
32394;DHT22;18853;45.426;9.206;2023-07-30T13:22:17;32.70;48.70
32394;DHT22;18853;45.426;9.206;2023-07-30T13:24:42;32.80;49.10
32394;DHT22;18853;45.426;9.206;2023-07-30T13:27:08;32.90;48.70
32394;DHT22;18853;45.426;9.206;2023-07-30T13:29:34;33.00;47.80
32394;DHT22;18853;45.426;9.206;2023-07-30T13:32:00;33.00;48.00
32394;DHT22;18853;45.426;9.206;2023-07-30T13:34:26;32.90;47.50
32394;DHT22;18853;45.426;9.206;2023-07-30T13:36:51;32.90;48.30
32394;DHT22;18853;45.426;9.206;2023-07-30T13:39:17;33.00;48.90
32394;DHT22;18853;45.426;9.206;2023-07-30T13:41:43;33.10;47.00
32394;DHT22;18853;45.426;9.206;2023-07-30T13:44:08;33.20;47.20
32394;DHT22;18853;45.426;9.206;2023-07-30T13:46:36;33.20;47.20
32394;DHT22;18853;45.426;9.206;2023-07-30T13:49:02;33.30;47.00
32394;DHT22;18853;45.426;9.206;2023-07-30T13:51:28;33.40;46.50
32394;DHT22;18853;45.426;9.206;2023-07-30T13:54:01;33.40;46.40
32394;DHT22;18853;45.426;9.206;2023-07-30T13:56:27;33.50;46.10
32394;DHT22;18853;45.426;9.206;2023-07-30T13:58:54;33.60;45.90
32394;DHT22;18853;45.426;9.206;2023-07-30T14:01:20;33.60;45.60
32394;DHT22;18853;45.426;9.206;2023-07-30T14:03:45;33.60;45.10
32394;DHT22;18853;45.426;9.206;2023-07-30T14:06:11;33.60;45.10
32394;DHT22;18853;45.426;9.206;2023-07-30T14:08:37;33.60;45.40
32394;DHT22;18853;45.426;9.206;2023-07-30T14:11:03;33.70;44.50
32394;DHT22;18853;45.426;9.206;2023-07-30T14:13:28;33.70;44.00
32394;DHT22;18853;45.426;9.206;2023-07-30T14:15:57;33.90;43.60
32394;DHT22;18853;45.426;9.206;2023-07-30T14:18:26;33.90;43.30
32394;DHT22;18853;45.426;9.206;2023-07-30T14:20:51;33.90;43.60
32394;DHT22;18853;45.426;9.206;2023-07-30T14:23:18;34.00;44.10
32394;DHT22;18853;45.426;9.206;2023-07-30T14:25:43;34.10;43.80
32394;DHT22;18853;45.426;9.206;2023-07-30T14:28:09;34.20;43.80
32394;DHT22;18853;45.426;9.206;2023-07-30T14:30:35;34.40;44.10
32394;DHT22;18853;45.426;9.206;2023-07-30T14:33:02;34.50;43.10
32394;DHT22;18853;45.426;9.206;2023-07-30T14:35:28;34.60;42.80
32394;DHT22;18853;45.426;9.206;2023-07-30T14:37:54;34.80;42.60
32394;DHT22;18853;45.426;9.206;2023-07-30T14:40:20;34.70;42.40
32394;DHT22;18853;45.426;9.206;2023-07-30T14:42:46;34.80;42.80
32394;DHT22;18853;45.426;9.206;2023-07-30T14:45:12;34.80;42.50
32394;DHT22;18853;45.426;9.206;2023-07-30T14:47:37;34.90;42.10
32394;DHT22;18853;45.426;9.206;2023-07-30T14:50:05;34.90;42.00
32394;DHT22;18853;45.426;9.206;2023-07-30T14:52:31;35.00;41.90
32394;DHT22;18853;45.426;9.206;2023-07-30T14:54:57;35.20;42.30
32394;DHT22;18853;45.426;9.206;2023-07-30T14:57:22;35.20;41.80
32394;DHT22;18853;45.426;9.206;2023-07-30T14:59:48;35.20;41.30
32394;DHT22;18853;45.426;9.206;2023-07-30T15:02:14;35.30;41.30
32394;DHT22;18853;45.426;9.206;2023-07-30T15:04:40;35.30;40.90
32394;DHT22;18853;45.426;9.206;2023-07-30T15:07:05;35.30;40.40
32394;DHT22;18853;45.426;9.206;2023-07-30T15:09:31;35.40;40.60
32394;DHT22;18853;45.426;9.206;2023-07-30T15:12:00;35.50;40.80
32394;DHT22;18853;45.426;9.206;2023-07-30T15:14:26;35.60;40.40
32394;DHT22;18853;45.426;9.206;2023-07-30T15:16:53;35.70;40.10
32394;DHT22;18853;45.426;9.206;2023-07-30T15:19:19;35.80;39.80
32394;DHT22;18853;45.426;9.206;2023-07-30T15:21:45;35.80;39.30
32394;DHT22;18853;45.426;9.206;2023-07-30T15:24:10;35.70;38.90
32394;DHT22;18853;45.426;9.206;2023-07-30T15:26:36;35.70;38.90
32394;DHT22;18853;45.426;9.206;2023-07-30T15:29:02;35.70;39.20
32394;DHT22;18853;45.426;9.206;2023-07-30T15:31:29;35.70;39.80
32394;DHT22;18853;45.426;9.206;2023-07-30T15:33:55;35.80;39.10
32394;DHT22;18853;45.426;9.206;2023-07-30T15:36:22;35.90;38.60
32394;DHT22;18853;45.426;9.206;2023-07-30T15:38:48;35.90;38.50